Terminal Aerodrome Forecast
Issued by NWS Sterling, VA

Current Version | Previous Version | Graphics & Text | Print | Product List | Glossary On
Versions: 1 2 3 4 5 6 7 8 9 10 11 12 13 14 15 16 17 18 19 20 21 22 23 24
000
FTUS41 KLWX 230534
TAFMRB
TAF
KMRB 230534Z 2306/2406 33004KT P6SM FEW250
     FM231400 04004KT P6SM OVC140
     FM231600 06004KT P6SM OVC035
     FM231800 07005KT P6SM OVC030
     FM232300 06004KT P6SM OVC015
     FM240500 00000KT 6SM BR BKN008=

USA.gov is the U.S. government's official web portal to all federal, state and local government web resources and services.